Paonia, CO (81428)

1:55 PM MDT on August 23, 2014 (GMT -0600)
Lamborn Mesa | Change Station
CLOSE
Current Station
Personal Weather Station
Location: Paonia, CO
Elevation: 5900 ft
Nearby Weather Stations

Elev 5900 ft 38.86 °N, 107.59 °W | Updated 7 minutes ago

Rain
Rain
55.0 °F
Feels Like 55.0 °F
N
2.0
Wind Variable Wind from North
Gusts 0.0 mph

Today
High -- | Low -- °F
--% Chance of Precip.
Yesterday
High -- | Low -- °F
Precip. -- in
6:31 AM 7:53 PM
Waning Crescent, 3% visible
Pressure 30.11 in
Visibility 10.0 miles
Clouds Scattered Clouds 4300 ft
Mostly Cloudy 8000 ft
Overcast 12000 ft
Dew Point 50 °F
Humidity 85%
Rainfall -999.00 in
Snow Depth 0 in , 0 in
UV 3 out of 12
Pollen 8.30 out of 12
Air Quality Not available.
Flu Activity Not available.
METAR KAJZ 231935Z AUTO 20012G15KT 10SM VCTSRA SCT043 BKN080 OVC120 17/14 A3011 RMK AO2 T01740141

More Conditions Fewer Conditions

Pressure 30.11 in
Visibility 10.0 miles
Clouds Scattered Clouds 4300 ft
Mostly Cloudy 8000 ft
Overcast 12000 ft
Dew Point 50 °F
Humidity 85%
Rainfall -999.00 in
Snow Depth 0 in , 0 in
UV 3 out of 12
Pollen 8.30 out of 12
Air Quality Not available.
Flu Activity Not available.
METAR KAJZ 231935Z AUTO 20012G15KT 10SM VCTSRA SCT043 BKN080 OVC120 17/14 A3011 RMK AO2 T01740141

More Conditions Fewer Conditions

10-Day Weather Forecast

Almanac

Astronomy

Aug. 23, 2014 Rise Set
Actual Time 6:31 AM MDT 7:53 PM MDT
Civil Twilight 6:03 AM MDT 8:21 PM MDT
Nautical Twilight 5:29 AM MDT 8:55 PM MDT
Astronomical Twilight 4:54 AM MDT 9:30 PM MDT
Moon 4:50 AM MDT 6:40 PM MDT
Length of Visible Light 14h 18m
Length of Day
13h 22m
Tomorrow will be 2m 21s shorter.
Waning Crescent, 3% of the Moon is Illuminated
Today
Waning Crescent
Aug 25
New
Sep 2
First Quarter
Sep 8
Full
Sep 15
Last Quarter

Today's Extremes

State Highs State Lows

Community

WunderPhotos

Upload Photos

1,746,583 photos uploaded!

WunderBlogs® & News

Nearby

Snow Depth

Station Depth Elevation
Overland Reservoir 0 in 9880 ft
Park Reservoir 0 in 9960 ft
McClure Pass 1 in 9500 ft
North Lost Trail 1 in 9200 ft
Mesa Lakes 0 in 10000 ft

Earthquake Activity

City Distance Mag. Time & Date
No recent earthquake activity has been reported nearby.
Minimum magnitude displayed is 2.5.

Coastal Water Temperatures

Place Temperature
No Stations Reporting

Nearby Weather Stations